createdAt,value
2018-09-22T00:00:09.925Z,855.00
2018-09-22T00:01:10.275Z,855.00
2018-09-22T00:02:10.464Z,854.00
2018-09-22T00:03:10.795Z,855.00
2018-09-22T00:04:11.039Z,858.00
2018-09-22T00:05:11.252Z,860.00
2018-09-22T00:06:10.445Z,860.00
2018-09-22T00:07:11.724Z,860.00
2018-09-22T00:08:12.152Z,857.00
2018-09-22T00:09:12.336Z,857.00
2018-09-22T00:10:12.604Z,857.00
2018-09-22T00:11:12.855Z,856.00
2018-09-22T00:12:13.104Z,856.00
2018-09-22T00:13:13.338Z,856.00
2018-09-22T00:14:14.030Z,856.00
2018-09-22T00:15:14.749Z,855.00
2018-09-22T00:16:15.012Z,855.00
2018-09-22T00:17:15.374Z,855.00
2018-09-22T00:17:23.700Z,855.00
2018-09-22T00:18:25.142Z,855.00
2018-09-22T00:19:25.392Z,856.00
2018-09-22T00:20:25.753Z,855.00
2018-09-22T00:21:25.883Z,855.00
2018-09-22T00:22:26.142Z,855.00
2018-09-22T00:23:26.280Z,855.00
2018-09-22T00:24:26.605Z,857.00
2018-09-22T00:25:26.933Z,856.00
2018-09-22T00:26:27.932Z,857.00
2018-09-22T00:27:28.249Z,856.00
2018-09-22T00:28:28.440Z,858.00
2018-09-22T00:29:28.675Z,857.00
2018-09-22T00:30:28.960Z,859.00
2018-09-22T00:31:29.138Z,857.00
2018-09-22T00:32:29.434Z,857.00
2018-09-22T00:33:29.722Z,857.00
2018-09-22T00:34:29.863Z,856.00
2018-09-22T00:35:30.188Z,856.00
2018-09-22T00:36:30.509Z,856.00
2018-09-22T00:37:30.740Z,857.00
2018-09-22T00:38:31.020Z,856.00
2018-09-22T00:39:31.270Z,855.00
2018-09-22T00:40:31.500Z,856.00
2018-09-22T00:41:31.677Z,856.00
2018-09-22T00:42:32.077Z,858.00
2018-09-22T00:43:32.374Z,857.00
2018-09-22T00:44:32.609Z,856.00
2018-09-22T00:45:32.793Z,856.00
2018-09-22T00:46:33.035Z,856.00
2018-09-22T00:47:33.312Z,858.00
2018-09-22T00:48:33.560Z,857.00
2018-09-22T00:49:33.891Z,857.00
2018-09-22T00:50:34.212Z,857.00
2018-09-22T00:51:34.606Z,857.00
2018-09-22T00:52:34.838Z,857.00
2018-09-22T00:53:35.079Z,856.00
2018-09-22T00:54:35.367Z,856.00
2018-09-22T00:55:35.666Z,855.00
2018-09-22T00:56:36.234Z,856.00
2018-09-22T00:57:36.577Z,856.00
2018-09-22T00:58:36.851Z,856.00
2018-09-22T00:58:45.299Z,856.00
2018-09-22T00:59:46.519Z,856.00
2018-09-22T01:00:46.690Z,856.00
2018-09-22T01:01:46.893Z,856.00
2018-09-22T01:02:47.096Z,856.00
2018-09-22T01:03:47.389Z,857.00
2018-09-22T01:04:47.826Z,856.00
2018-09-22T01:05:48.021Z,856.00
2018-09-22T01:06:48.262Z,857.00
2018-09-22T01:07:48.572Z,857.00
2018-09-22T01:08:48.801Z,857.00
2018-09-22T01:09:48.992Z,857.00
2018-09-22T01:10:49.241Z,857.00
2018-09-22T01:11:49.750Z,857.00
2018-09-22T01:12:50.066Z,856.00
2018-09-22T01:13:50.302Z,858.00
2018-09-22T01:14:50.454Z,857.00
2018-09-22T01:15:50.768Z,858.00
2018-09-22T01:16:50.543Z,857.00
2018-09-22T01:17:51.854Z,857.00
2018-09-22T01:18:52.132Z,857.00
2018-09-22T01:19:52.348Z,857.00
2018-09-22T01:20:52.774Z,858.00
2018-09-22T01:21:53.306Z,858.00
2018-09-22T01:22:53.610Z,859.00
2018-09-22T01:23:53.940Z,859.00
2018-09-22T01:24:54.271Z,858.00
2018-09-22T01:25:54.615Z,861.00
2018-09-22T01:26:55.109Z,861.00
2018-09-22T01:27:55.646Z,864.00
2018-09-22T01:28:55.933Z,861.00
2018-09-22T01:29:56.187Z,860.00
2018-09-22T01:30:56.372Z,859.00
2018-09-22T01:31:56.607Z,859.00
2018-09-22T01:32:56.820Z,859.00
2018-09-22T01:33:57.060Z,859.00
2018-09-22T01:34:57.264Z,861.00
2018-09-22T01:35:57.454Z,866.00
2018-09-22T01:36:57.660Z,864.00
2018-09-22T01:37:58.262Z,865.00
2018-09-22T01:38:58.559Z,861.00
2018-09-22T01:39:58.786Z,860.00
2018-09-22T01:40:59.018Z,859.00
2018-09-22T01:41:58.219Z,860.00
2018-09-22T01:42:59.531Z,860.00
2018-09-22T01:43:59.760Z,859.00
2018-09-22T01:45:00.054Z,859.00
2018-09-22T01:45:59.234Z,859.00
2018-09-22T01:46:07.275Z,859.00
2018-09-22T01:47:08.521Z,859.00
2018-09-22T01:48:08.750Z,859.00
2018-09-22T01:49:08.997Z,859.00
2018-09-22T01:50:09.209Z,859.00
2018-09-22T01:51:09.457Z,864.00
2018-09-22T01:52:09.718Z,864.00
2018-09-22T01:53:08.989Z,861.00
2018-09-22T01:54:10.204Z,861.00
2018-09-22T01:55:10.416Z,860.00
2018-09-22T01:56:10.704Z,860.00
2018-09-22T01:57:10.927Z,859.00
2018-09-22T01:58:11.173Z,860.00
2018-09-22T01:59:11.389Z,860.00
2018-09-22T02:00:11.701Z,860.00
2018-09-22T02:01:12.537Z,861.00
2018-09-22T02:02:12.713Z,865.00
2018-09-22T02:03:12.886Z,865.00
2018-09-22T02:04:13.161Z,856.00
2018-09-22T02:05:13.434Z,867.00
2018-09-22T02:06:14.268Z,866.00
2018-09-22T02:07:14.421Z,867.00
2018-09-22T02:08:15.223Z,869.00
2018-09-22T02:09:15.572Z,869.00
2018-09-22T02:10:15.776Z,869.00
2018-09-22T02:11:16.140Z,869.00
2018-09-22T02:12:16.387Z,871.00
2018-09-22T02:13:16.675Z,871.00
2018-09-22T02:14:16.980Z,871.00
2018-09-22T02:15:17.203Z,870.00
2018-09-22T02:16:17.426Z,870.00
2018-09-22T02:17:17.700Z,871.00
2018-09-22T02:18:18.053Z,871.00
2018-09-22T02:19:18.553Z,873.00
2018-09-22T02:20:18.765Z,874.00
2018-09-22T02:21:18.990Z,871.00
2018-09-22T02:22:19.181Z,870.00
2018-09-22T02:23:19.433Z,872.00
2018-09-22T02:24:19.844Z,870.00
2018-09-22T02:25:20.265Z,871.00
2018-09-22T02:26:20.467Z,870.00
2018-09-22T02:27:20.610Z,871.00
2018-09-22T02:28:20.800Z,870.00
2018-09-22T02:29:20.991Z,869.00
2018-09-22T02:29:29.037Z,869.00
2018-09-22T02:30:30.186Z,869.00
2018-09-22T02:31:30.394Z,871.00
2018-09-22T02:32:30.555Z,870.00
2018-09-22T02:33:30.915Z,868.00
2018-09-22T02:34:31.149Z,868.00
2018-09-22T02:35:31.552Z,868.00
2018-09-22T02:36:31.865Z,867.00
2018-09-22T02:37:32.167Z,867.00
2018-09-22T02:38:32.439Z,869.00
2018-09-22T02:39:32.634Z,869.00
2018-09-22T02:40:32.851Z,868.00
2018-09-22T02:41:33.099Z,869.00
2018-09-22T02:42:33.289Z,869.00
2018-09-22T02:43:33.644Z,868.00
2018-09-22T02:44:33.839Z,868.00
2018-09-22T02:45:34.053Z,868.00
2018-09-22T02:46:34.277Z,867.00
2018-09-22T02:47:34.527Z,869.00
2018-09-22T02:48:34.837Z,867.00
2018-09-22T02:49:35.102Z,867.00
2018-09-22T02:50:35.363Z,866.00
2018-09-22T02:51:35.729Z,866.00
2018-09-22T02:52:36.201Z,867.00
2018-09-22T02:53:36.559Z,867.00
2018-09-22T02:54:36.838Z,866.00
2018-09-22T02:55:37.118Z,868.00
2018-09-22T02:56:37.344Z,867.00
2018-09-22T02:57:37.598Z,866.00
2018-09-22T02:58:38.483Z,866.00
2018-09-22T02:59:38.677Z,866.00
2018-09-22T03:00:38.940Z,867.00
2018-09-22T03:01:39.229Z,866.00
2018-09-22T03:02:39.428Z,867.00
2018-09-22T03:03:39.650Z,866.00
2018-09-22T03:04:40.051Z,865.00
2018-09-22T03:05:40.301Z,865.00
2018-09-22T03:06:40.579Z,865.00
2018-09-22T03:07:39.720Z,865.00
2018-09-22T03:08:41.042Z,865.00
2018-09-22T03:09:40.159Z,865.00
2018-09-22T03:10:40.520Z,861.00
2018-09-22T03:11:42.333Z,865.00
2018-09-22T03:12:42.530Z,866.00
2018-09-22T03:13:42.764Z,867.00
2018-09-22T03:13:51.090Z,867.00
2018-09-22T03:14:52.362Z,866.00
2018-09-22T03:15:53.211Z,865.00
2018-09-22T03:16:53.653Z,865.00
2018-09-22T03:17:53.985Z,866.00
2018-09-22T03:18:54.373Z,865.00
2018-09-22T03:19:54.723Z,865.00
2018-09-22T03:20:55.172Z,865.00
2018-09-22T03:21:55.404Z,866.00
2018-09-22T03:22:55.783Z,865.00
2018-09-22T03:23:56.150Z,867.00
2018-09-22T03:24:56.402Z,866.00
2018-09-22T03:25:56.621Z,867.00
2018-09-22T03:26:56.845Z,867.00
2018-09-22T03:27:57.035Z,867.00
2018-09-22T03:28:57.240Z,868.00
2018-09-22T03:29:57.624Z,868.00
2018-09-22T03:30:57.906Z,868.00
2018-09-22T03:31:58.366Z,866.00
2018-09-22T03:32:58.549Z,866.00
2018-09-22T03:33:57.759Z,868.00
2018-09-22T03:34:59.257Z,867.00
2018-09-22T03:35:59.424Z,868.00
2018-09-22T03:36:59.957Z,868.00
2018-09-22T03:38:00.224Z,868.00
2018-09-22T03:39:00.479Z,867.00
2018-09-22T03:40:00.836Z,867.00
2018-09-22T03:41:00.987Z,867.00
2018-09-22T03:42:01.405Z,867.00
2018-09-22T03:43:01.774Z,868.00
2018-09-22T03:44:01.978Z,868.00
2018-09-22T03:45:02.232Z,868.00
2018-09-22T03:46:02.484Z,868.00
2018-09-22T03:47:02.710Z,867.00
2018-09-22T03:48:03.077Z,867.00
2018-09-22T03:49:03.277Z,867.00
2018-09-22T03:50:03.388Z,867.00
2018-09-22T03:51:03.841Z,867.00
2018-09-22T03:52:04.135Z,868.00
2018-09-22T03:53:04.533Z,868.00
2018-09-22T03:54:05.369Z,868.00
2018-09-22T03:55:05.681Z,867.00
2018-09-22T03:56:05.934Z,868.00
2018-09-22T03:57:06.322Z,868.00
2018-09-22T03:58:06.578Z,868.00
2018-09-22T03:58:14.616Z,868.00
2018-09-22T03:59:15.780Z,868.00
2018-09-22T04:00:16.097Z,868.00
2018-09-22T04:01:16.429Z,868.00
2018-09-22T04:02:16.663Z,867.00
2018-09-22T04:03:16.881Z,867.00
2018-09-22T04:04:17.136Z,869.00
2018-09-22T04:05:17.322Z,869.00
2018-09-22T04:06:18.170Z,869.00
2018-09-22T04:07:18.518Z,868.00
2018-09-22T04:08:18.712Z,869.00
2018-09-22T04:09:17.902Z,869.00
2018-09-22T04:10:19.162Z,869.00
2018-09-22T04:11:19.371Z,869.00
2018-09-22T04:12:19.582Z,870.00
2018-09-22T04:13:19.778Z,869.00
2018-09-22T04:14:20.219Z,869.00
2018-09-22T04:15:20.458Z,868.00
2018-09-22T04:16:20.763Z,867.00
2018-09-22T04:17:21.147Z,868.00
2018-09-22T04:18:21.358Z,867.00
2018-09-22T04:19:21.681Z,867.00
2018-09-22T04:20:21.882Z,868.00
2018-09-22T04:21:22.099Z,867.00
2018-09-22T04:22:22.264Z,867.00
2018-09-22T04:23:22.511Z,867.00
2018-09-22T04:24:22.946Z,867.00
2018-09-22T04:25:23.141Z,867.00
2018-09-22T04:26:23.368Z,868.00
2018-09-22T04:27:23.710Z,867.00
2018-09-22T04:28:23.986Z,869.00
2018-09-22T04:29:24.289Z,869.00
2018-09-22T04:30:25.041Z,869.00
2018-09-22T04:31:25.295Z,871.00
2018-09-22T04:32:25.646Z,873.00
2018-09-22T04:33:25.935Z,874.00
2018-09-22T04:34:25.116Z,871.00
2018-09-22T04:35:26.325Z,870.00
2018-09-22T04:36:26.777Z,870.00
2018-09-22T04:37:27.016Z,873.00
2018-09-22T04:38:27.269Z,871.00
2018-09-22T04:39:27.469Z,870.00
2018-09-22T04:40:28.422Z,873.00
2018-09-22T04:41:28.866Z,871.00
2018-09-22T04:42:29.096Z,871.00
2018-09-22T04:43:29.312Z,873.00
2018-09-22T04:43:37.719Z,873.00
2018-09-22T04:44:38.973Z,870.00
2018-09-22T04:45:39.515Z,871.00
2018-09-22T04:46:40.207Z,871.00
2018-09-22T04:47:40.459Z,873.00
2018-09-22T04:48:40.644Z,871.00
2018-09-22T04:49:40.878Z,871.00
2018-09-22T04:50:41.104Z,871.00
2018-09-22T04:51:41.341Z,870.00
2018-09-22T04:52:41.631Z,870.00
2018-09-22T04:53:41.865Z,869.00
2018-09-22T04:54:42.086Z,869.00
2018-09-22T04:55:42.367Z,868.00
2018-09-22T04:56:42.602Z,868.00
2018-09-22T04:57:42.814Z,859.00
2018-09-22T04:58:42.997Z,867.00
2018-09-22T04:59:43.321Z,870.00
2018-09-22T05:00:42.527Z,869.00
2018-09-22T05:01:43.827Z,870.00
2018-09-22T05:02:44.246Z,870.00
2018-09-22T05:03:44.507Z,871.00
2018-09-22T05:04:44.702Z,871.00
2018-09-22T05:05:44.951Z,871.00
2018-09-22T05:06:45.197Z,869.00
2018-09-22T05:07:45.462Z,869.00
2018-09-22T05:08:45.737Z,869.00
2018-09-22T05:09:45.994Z,869.00
2018-09-22T05:10:46.168Z,868.00
2018-09-22T05:11:46.400Z,867.00
2018-09-22T05:12:45.631Z,868.00
2018-09-22T05:13:46.915Z,869.00
2018-09-22T05:14:47.169Z,868.00
2018-09-22T05:15:47.470Z,868.00
2018-09-22T05:16:47.720Z,868.00
2018-09-22T05:17:48.094Z,867.00
2018-09-22T05:18:48.351Z,868.00
2018-09-22T05:19:48.620Z,867.00
2018-09-22T05:20:48.865Z,867.00
2018-09-22T05:21:49.079Z,866.00
2018-09-22T05:22:49.262Z,868.00
2018-09-22T05:23:49.693Z,869.00
2018-09-22T05:24:49.960Z,867.00
2018-09-22T05:25:49.324Z,867.00
2018-09-22T05:26:50.529Z,866.00
2018-09-22T05:27:50.681Z,868.00
2018-09-22T05:28:50.906Z,868.00
2018-09-22T05:29:51.118Z,869.00
2018-09-22T05:29:59.554Z,868.00
2018-09-22T05:31:00.715Z,867.00
2018-09-22T05:32:01.001Z,868.00
2018-09-22T05:33:01.219Z,868.00
2018-09-22T05:34:01.484Z,867.00
2018-09-22T05:35:01.861Z,866.00
2018-09-22T05:36:02.132Z,867.00
2018-09-22T05:37:02.655Z,868.00
2018-09-22T05:38:02.909Z,868.00
2018-09-22T05:39:03.255Z,867.00
2018-09-22T05:40:03.702Z,867.00
2018-09-22T05:41:04.130Z,866.00
2018-09-22T05:42:04.927Z,866.00
2018-09-22T05:43:05.138Z,866.00
2018-09-22T05:44:05.468Z,866.00
2018-09-22T05:45:05.730Z,866.00
2018-09-22T05:46:06.104Z,867.00
2018-09-22T05:47:06.266Z,867.00
2018-09-22T05:48:06.552Z,866.00
2018-09-22T05:49:07.059Z,866.00
2018-09-22T05:50:07.282Z,866.00
2018-09-22T05:51:07.617Z,867.00
2018-09-22T05:52:07.841Z,867.00
2018-09-22T05:53:08.302Z,867.00
2018-09-22T05:54:08.522Z,868.00
2018-09-22T05:55:08.772Z,868.00
2018-09-22T05:56:09.402Z,868.00
2018-09-22T05:57:09.575Z,867.00
2018-09-22T05:58:09.973Z,866.00
2018-09-22T05:59:09.204Z,866.00
2018-09-22T06:00:10.417Z,866.00
2018-09-22T06:01:10.629Z,864.00
2018-09-22T06:02:10.856Z,864.00
2018-09-22T06:03:11.079Z,864.00
2018-09-22T06:04:11.422Z,861.00
2018-09-22T06:05:11.642Z,865.00
2018-09-22T06:06:11.906Z,865.00
2018-09-22T06:07:12.100Z,865.00
2018-09-22T06:08:12.389Z,861.00
2018-09-22T06:09:12.648Z,861.00
2018-09-22T06:10:12.916Z,865.00
2018-09-22T06:11:13.176Z,865.00
2018-09-22T06:12:13.387Z,866.00
2018-09-22T06:13:13.650Z,866.00
2018-09-22T06:14:14.049Z,867.00
2018-09-22T06:14:22.406Z,866.00
2018-09-22T06:15:23.714Z,867.00
2018-09-22T06:16:23.941Z,866.00
2018-09-22T06:17:24.182Z,865.00
2018-09-22T06:18:24.453Z,862.00
2018-09-22T06:19:23.801Z,865.00
2018-09-22T06:20:25.101Z,864.00
2018-09-22T06:21:25.445Z,865.00
2018-09-22T06:22:25.649Z,865.00
2018-09-22T06:23:26.017Z,866.00
2018-09-22T06:24:25.270Z,865.00
2018-09-22T06:25:26.493Z,862.00
2018-09-22T06:26:26.914Z,865.00
2018-09-22T06:27:27.142Z,865.00
2018-09-22T06:28:27.416Z,866.00
2018-09-22T06:29:27.759Z,867.00
2018-09-22T06:30:28.217Z,869.00
2018-09-22T06:31:28.567Z,868.00
2018-09-22T06:32:28.874Z,869.00
2018-09-22T06:33:29.144Z,868.00
2018-09-22T06:34:29.468Z,868.00
2018-09-22T06:35:29.825Z,868.00
2018-09-22T06:36:30.276Z,868.00
2018-09-22T06:37:30.716Z,867.00
2018-09-22T06:38:30.043Z,870.00
2018-09-22T06:39:31.423Z,870.00
2018-09-22T06:40:31.891Z,868.00
2018-09-22T06:41:32.302Z,868.00
2018-09-22T06:42:32.648Z,867.00
2018-09-22T06:43:32.855Z,867.00
2018-09-22T06:44:33.181Z,868.00
2018-09-22T06:45:33.336Z,867.00
2018-09-22T06:46:33.639Z,867.00
2018-09-22T06:47:33.961Z,867.00
2018-09-22T06:48:34.197Z,867.00
2018-09-22T06:49:34.481Z,869.00
2018-09-22T06:50:34.783Z,868.00
2018-09-22T06:51:34.971Z,869.00
2018-09-22T06:52:35.249Z,869.00
2018-09-22T06:53:35.451Z,870.00
2018-09-22T06:54:35.689Z,869.00
2018-09-22T06:55:35.902Z,868.00
2018-09-22T06:56:36.123Z,868.00
2018-09-22T06:57:36.598Z,871.00
2018-09-22T06:58:37.002Z,871.00
2018-09-22T06:59:37.309Z,871.00
2018-09-22T07:00:37.587Z,870.00
2018-09-22T07:00:45.983Z,869.00
2018-09-22T07:01:46.659Z,871.00
2018-09-22T07:02:47.133Z,869.00
2018-09-22T07:03:47.392Z,869.00
2018-09-22T07:04:47.749Z,868.00
2018-09-22T07:05:48.047Z,869.00
2018-09-22T07:06:48.488Z,868.00
2018-09-22T07:07:48.786Z,866.00
2018-09-22T07:08:49.207Z,866.00
2018-09-22T07:09:49.491Z,867.00
2018-09-22T07:10:49.761Z,865.00
2018-09-22T07:11:49.999Z,865.00
2018-09-22T07:12:50.581Z,864.00
2018-09-22T07:13:51.557Z,860.00
2018-09-22T07:14:50.685Z,861.00
2018-09-22T07:15:52.059Z,865.00
2018-09-22T07:16:52.297Z,865.00
2018-09-22T07:17:52.754Z,865.00
2018-09-22T07:18:53.230Z,865.00
2018-09-22T07:19:53.504Z,856.00
2018-09-22T07:20:54.072Z,865.00
2018-09-22T07:21:54.467Z,865.00
2018-09-22T07:22:54.672Z,861.00
2018-09-22T07:23:55.216Z,866.00
2018-09-22T07:24:55.492Z,865.00
2018-09-22T07:25:55.946Z,861.00
2018-09-22T07:26:56.255Z,860.00
2018-09-22T07:27:56.511Z,860.00
2018-09-22T07:28:56.967Z,865.00
2018-09-22T07:29:57.345Z,861.00
2018-09-22T07:30:57.807Z,861.00
2018-09-22T07:31:56.875Z,861.00
2018-09-22T07:32:57.156Z,861.00
2018-09-22T07:33:58.334Z,861.00
2018-09-22T07:34:58.481Z,861.00
2018-09-22T07:35:58.756Z,860.00
2018-09-22T07:36:58.922Z,861.00
2018-09-22T07:37:59.083Z,860.00
2018-09-22T07:38:59.398Z,859.00
2018-09-22T07:39:59.686Z,859.00
2018-09-22T07:40:59.924Z,860.00
2018-09-22T07:42:00.218Z,859.00
2018-09-22T07:42:59.475Z,859.00
2018-09-22T07:44:00.710Z,858.00
2018-09-22T07:45:00.897Z,861.00
2018-09-22T07:46:01.082Z,861.00
2018-09-22T07:46:09.552Z,860.00
2018-09-22T07:47:10.672Z,859.00
2018-09-22T07:48:10.962Z,858.00
2018-09-22T07:49:11.165Z,858.00
2018-09-22T07:50:11.389Z,856.00
2018-09-22T07:51:11.706Z,854.00
2018-09-22T07:52:12.096Z,855.00
2018-09-22T07:53:12.515Z,857.00
2018-09-22T07:54:12.686Z,855.00
2018-09-22T07:55:12.986Z,856.00
2018-09-22T07:56:13.451Z,856.00
2018-09-22T07:57:13.722Z,858.00
2018-09-22T07:58:13.297Z,856.00
2018-09-22T07:59:14.566Z,855.00
2018-09-22T08:00:14.764Z,852.00
2018-09-22T08:01:15.124Z,849.00
2018-09-22T08:02:15.396Z,850.00
2018-09-22T08:03:15.950Z,849.00
2018-09-22T08:04:16.913Z,849.00
2018-09-22T08:05:17.387Z,852.00
2018-09-22T08:06:17.632Z,852.00
2018-09-22T08:07:17.924Z,854.00
2018-09-22T08:08:18.139Z,853.00
2018-09-22T08:09:18.578Z,853.00
2018-09-22T08:10:18.865Z,853.00
2018-09-22T08:11:19.139Z,853.00
2018-09-22T08:12:19.326Z,853.00
2018-09-22T08:13:19.671Z,852.00
2018-09-22T08:14:20.170Z,849.00
2018-09-22T08:15:20.408Z,852.00
2018-09-22T08:16:20.852Z,852.00
2018-09-22T08:17:21.142Z,849.00
2018-09-22T08:18:21.564Z,852.00
2018-09-22T08:19:21.836Z,855.00
2018-09-22T08:20:22.090Z,856.00
2018-09-22T08:21:22.539Z,855.00
2018-09-22T08:22:22.813Z,856.00
2018-09-22T08:23:23.157Z,859.00
2018-09-22T08:24:23.686Z,861.00
2018-09-22T08:25:24.094Z,860.00
2018-09-22T08:26:24.012Z,859.00
2018-09-22T08:27:25.382Z,858.00
2018-09-22T08:28:25.636Z,857.00
2018-09-22T08:29:26.211Z,857.00
2018-09-22T08:30:26.561Z,856.00
2018-09-22T08:31:25.701Z,855.00
2018-09-22T08:32:26.944Z,856.00
2018-09-22T08:32:35.287Z,855.00
2018-09-22T08:33:36.504Z,853.00
2018-09-22T08:34:36.780Z,852.00
2018-09-22T08:35:37.033Z,853.00
2018-09-22T08:36:37.544Z,852.00
2018-09-22T08:37:36.510Z,850.00
2018-09-22T08:38:37.784Z,848.00
2018-09-22T08:39:38.486Z,847.00
2018-09-22T08:40:38.949Z,846.00
2018-09-22T08:41:39.219Z,848.00
2018-09-22T08:42:39.717Z,850.00
2018-09-22T08:43:40.669Z,852.00
2018-09-22T08:44:40.155Z,849.00
2018-09-22T08:45:41.505Z,848.00
2018-09-22T08:46:41.833Z,848.00
2018-09-22T08:47:41.683Z,853.00
2018-09-22T08:48:42.110Z,853.00
2018-09-22T08:49:43.537Z,853.00
2018-09-22T08:50:43.100Z,852.00
2018-09-22T08:51:44.438Z,852.00
2018-09-22T08:52:43.882Z,853.00
2018-09-22T08:53:45.207Z,855.00
2018-09-22T08:54:45.805Z,854.00
2018-09-22T08:55:45.896Z,852.00
2018-09-22T08:56:46.519Z,853.00
2018-09-22T08:57:45.992Z,852.00
2018-09-22T08:58:46.923Z,853.00
2018-09-22T08:59:47.573Z,853.00
2018-09-22T09:00:47.953Z,852.00
2018-09-22T09:01:48.016Z,852.00
2018-09-22T09:02:49.624Z,850.00
2018-09-22T09:03:50.364Z,852.00
2018-09-22T09:04:49.396Z,852.00
2018-09-22T09:05:50.152Z,850.00
2018-09-22T09:06:50.511Z,853.00
2018-09-22T09:07:51.767Z,850.00
2018-09-22T09:08:52.526Z,852.00
2018-09-22T09:09:52.760Z,852.00
2018-09-22T09:10:53.107Z,852.00
2018-09-22T09:11:53.393Z,849.00
2018-09-22T09:12:53.711Z,852.00
2018-09-22T09:13:53.902Z,850.00
2018-09-22T09:14:54.163Z,850.00
2018-09-22T09:15:54.467Z,852.00
2018-09-22T09:16:54.778Z,849.00
2018-09-22T09:17:55.586Z,852.00
2018-09-22T09:18:55.835Z,852.00
2018-09-22T09:19:56.310Z,849.00
2018-09-22T09:20:56.675Z,852.00
2018-09-22T09:21:55.913Z,853.00
2018-09-22T09:22:57.132Z,852.00
2018-09-22T09:23:57.338Z,849.00
2018-09-22T09:24:57.681Z,849.00
2018-09-22T09:25:58.032Z,848.00
2018-09-22T09:26:06.389Z,848.00
2018-09-22T09:27:07.669Z,847.00
2018-09-22T09:28:08.013Z,848.00
2018-09-22T09:29:08.229Z,849.00
2018-09-22T09:30:08.463Z,848.00
2018-09-22T09:31:08.670Z,848.00
2018-09-22T09:32:08.887Z,849.00
2018-09-22T09:33:09.121Z,849.00
2018-09-22T09:34:10.444Z,849.00
2018-09-22T09:35:09.768Z,849.00
2018-09-22T09:36:10.053Z,849.00
2018-09-22T09:37:10.298Z,848.00
2018-09-22T09:38:10.613Z,848.00
2018-09-22T09:39:10.832Z,847.00
2018-09-22T09:40:11.361Z,849.00
2018-09-22T09:41:11.595Z,852.00
2018-09-22T09:42:11.839Z,853.00
2018-09-22T09:43:12.115Z,852.00
2018-09-22T09:44:11.449Z,849.00
2018-09-22T09:45:12.663Z,849.00
2018-09-22T09:46:12.748Z,848.00
2018-09-22T09:47:13.007Z,849.00
2018-09-22T09:48:13.204Z,847.00
2018-09-22T09:49:13.490Z,848.00
2018-09-22T09:50:13.727Z,849.00
2018-09-22T09:51:14.212Z,848.00
2018-09-22T09:52:14.445Z,848.00
2018-09-22T09:53:14.748Z,848.00
2018-09-22T09:54:15.127Z,850.00
2018-09-22T09:55:15.573Z,848.00
2018-09-22T09:56:15.846Z,848.00
2018-09-22T09:57:16.060Z,847.00
2018-09-22T09:58:16.315Z,847.00
2018-09-22T09:59:16.651Z,847.00
2018-09-22T10:00:16.875Z,847.00
2018-09-22T10:01:17.171Z,846.00
2018-09-22T10:02:17.381Z,846.00
2018-09-22T10:03:17.864Z,846.00
2018-09-22T10:04:18.063Z,844.00
2018-09-22T10:05:18.294Z,843.00
2018-09-22T10:06:18.769Z,846.00
2018-09-22T10:07:19.106Z,843.00
2018-09-22T10:08:19.285Z,846.00
2018-09-22T10:09:19.527Z,844.00
2018-09-22T10:10:19.792Z,845.00
2018-09-22T10:11:20.004Z,843.00
2018-09-22T10:11:28.332Z,843.00
2018-09-22T10:12:29.566Z,845.00
2018-09-22T10:13:29.752Z,845.00
2018-09-22T10:14:29.907Z,845.00
2018-09-22T10:15:30.248Z,846.00
2018-09-22T10:16:30.514Z,844.00
2018-09-22T10:17:30.726Z,845.00
2018-09-22T10:18:30.982Z,843.00
2018-09-22T10:19:31.304Z,843.00
2018-09-22T10:20:31.725Z,844.00
2018-09-22T10:21:30.767Z,842.00
2018-09-22T10:22:32.062Z,842.00
2018-09-22T10:23:32.383Z,841.00
2018-09-22T10:24:32.754Z,841.00
2018-09-22T10:25:33.090Z,842.00
2018-09-22T10:26:33.334Z,841.00
2018-09-22T10:27:33.617Z,841.00
2018-09-22T10:28:33.928Z,841.00
2018-09-22T10:29:33.227Z,840.00
2018-09-22T10:30:34.748Z,842.00
2018-09-22T10:31:35.208Z,841.00
2018-09-22T10:32:35.435Z,841.00
2018-09-22T10:33:35.759Z,841.00
2018-09-22T10:34:36.050Z,843.00
2018-09-22T10:35:36.297Z,845.00
2018-09-22T10:36:37.564Z,847.00
2018-09-22T10:37:37.525Z,853.00
2018-09-22T10:38:37.874Z,848.00
2018-09-22T10:39:38.182Z,847.00
2018-09-22T10:40:37.427Z,847.00
2018-09-22T10:41:38.670Z,848.00
2018-09-22T10:42:38.881Z,848.00
2018-09-22T10:43:39.398Z,847.00
2018-09-22T10:44:39.553Z,847.00
2018-09-22T10:45:39.811Z,848.00
2018-09-22T10:46:40.178Z,847.00
2018-09-22T10:47:40.543Z,848.00
2018-09-22T10:48:40.707Z,847.00
2018-09-22T10:49:40.930Z,847.00
2018-09-22T10:50:41.177Z,849.00
2018-09-22T10:51:41.464Z,849.00
2018-09-22T10:52:41.687Z,847.00
2018-09-22T10:53:41.193Z,847.00
2018-09-22T10:54:42.448Z,847.00
2018-09-22T10:55:42.722Z,848.00
2018-09-22T10:56:42.923Z,848.00
2018-09-22T10:57:43.049Z,847.00
2018-09-22T10:58:43.301Z,846.00
2018-09-22T10:58:58.416Z,845.00
2018-09-22T10:59:58.627Z,847.00
2018-09-22T11:00:58.974Z,848.00
2018-09-22T11:01:59.296Z,847.00
2018-09-22T11:02:59.605Z,847.00
2018-09-22T11:03:59.911Z,848.00
2018-09-22T11:05:00.127Z,847.00
2018-09-22T11:06:00.337Z,848.00
2018-09-22T11:07:00.710Z,849.00
2018-09-22T11:08:00.909Z,852.00
2018-09-22T11:09:01.120Z,855.00
2018-09-22T11:10:01.359Z,856.00
2018-09-22T11:11:01.652Z,853.00
2018-09-22T11:12:01.876Z,850.00
2018-09-22T11:13:02.118Z,849.00
2018-09-22T11:14:02.292Z,849.00
2018-09-22T11:15:02.582Z,848.00
2018-09-22T11:16:02.786Z,847.00
2018-09-22T11:17:03.038Z,846.00
2018-09-22T11:18:03.376Z,846.00
2018-09-22T11:19:03.610Z,847.00
2018-09-22T11:20:03.960Z,846.00
2018-09-22T11:21:04.684Z,846.00
2018-09-22T11:22:04.876Z,845.00
2018-09-22T11:23:05.131Z,844.00
2018-09-22T11:24:05.713Z,845.00
2018-09-22T11:25:05.745Z,849.00
2018-09-22T11:26:06.024Z,849.00
2018-09-22T11:27:06.320Z,849.00
2018-09-22T11:28:06.539Z,849.00
2018-09-22T11:29:06.807Z,854.00
2018-09-22T11:30:07.763Z,853.00
2018-09-22T11:31:08.091Z,853.00
2018-09-22T11:32:08.341Z,852.00
2018-09-22T11:33:08.598Z,852.00
2018-09-22T11:34:08.959Z,849.00
2018-09-22T11:35:08.165Z,849.00
2018-09-22T11:36:09.505Z,852.00
2018-09-22T11:37:09.803Z,855.00
2018-09-22T11:38:10.079Z,855.00
2018-09-22T11:39:09.444Z,849.00
2018-09-22T11:40:11.055Z,848.00
2018-09-22T11:41:11.442Z,847.00
2018-09-22T11:42:11.697Z,848.00
2018-09-22T11:43:12.396Z,848.00
2018-09-22T11:43:26.463Z,847.00
2018-09-22T11:44:27.684Z,847.00
2018-09-22T11:45:28.078Z,847.00
2018-09-22T11:46:28.436Z,846.00
2018-09-22T11:47:28.688Z,845.00
2018-09-22T11:48:28.925Z,846.00
2018-09-22T11:49:29.234Z,847.00
2018-09-22T11:50:29.509Z,845.00
2018-09-22T11:51:29.908Z,847.00
2018-09-22T11:52:30.169Z,847.00
2018-09-22T11:53:30.495Z,848.00
2018-09-22T11:54:30.710Z,850.00
2018-09-22T11:55:31.023Z,849.00
2018-09-22T11:56:31.339Z,848.00
2018-09-22T11:57:30.608Z,853.00
2018-09-22T11:58:31.805Z,855.00
2018-09-22T11:59:32.000Z,853.00
2018-09-22T12:00:32.215Z,853.00
2018-09-22T12:01:32.464Z,849.00
2018-09-22T12:02:32.599Z,849.00
2018-09-22T12:03:32.815Z,850.00
2018-09-22T12:04:33.072Z,852.00
2018-09-22T12:05:33.465Z,850.00
2018-09-22T12:06:33.883Z,849.00
2018-09-22T12:07:32.986Z,848.00
2018-09-22T12:08:34.142Z,847.00
2018-09-22T12:09:34.317Z,848.00
2018-09-22T12:10:34.588Z,847.00
2018-09-22T12:11:35.037Z,848.00
2018-09-22T12:12:35.200Z,847.00
2018-09-22T12:13:35.351Z,850.00
2018-09-22T12:14:35.742Z,849.00
2018-09-22T12:15:35.981Z,849.00
2018-09-22T12:16:36.191Z,848.00
2018-09-22T12:17:36.411Z,849.00
2018-09-22T12:18:36.570Z,849.00